Time;durP1;ratioP1;P1;durP2;ratioP2;P2;SDS_P1;SDS_P2;PMS_P1;PMS_P2;Temp;Humidity;BMP_temperature;BMP_pressure;BME280_temperature;BME280_humidity;BME280_pressure;Samples;Min_cycle;Max_cycle;Signal;HPM_P1;HPM_P2
2022/06/22 00:00:18;;;;;;;9.88;5.95;;;;;;;14.77;74.84;100869.84;5025039;28;20053;-71
2022/06/22 00:02:48;;;;;;;7.05;5.40;;;;;;;14.67;75.20;100874.03;5025457;28;20395;-71
2022/06/22 00:05:18;;;;;;;7.75;5.22;;;;;;;14.86;74.72;100864.78;5024840;28;20103;-71
2022/06/22 00:07:50;;;;;;;6.88;5.50;;;;;;;14.90;74.70;100860.13;5026227;28;20045;-71
2022/06/22 00:10:20;;;;;;;6.07;5.45;;;;;;;14.47;77.62;100860.38;5022734;28;20050;-71
2022/06/22 00:12:49;;;;;;;8.00;5.03;;;;;;;14.53;77.28;100859.94;5024052;28;20037;-71
2022/06/22 00:15:23;;;;;;;8.63;5.35;;;;;;;14.85;76.06;100857.81;5025027;28;20048;-75
2022/06/22 00:17:50;;;;;;;10.60;5.13;;;;;;;15.34;73.66;100850.00;5003625;28;20045;-71
2022/06/22 00:20:23;;;;;;;12.00;5.35;;;;;;;15.39;72.95;100849.69;5003326;28;20050;-72
2022/06/22 00:22:52;;;;;;;9.10;5.45;;;;;;;15.52;72.29;100854.03;5013962;28;20073;-71
2022/06/22 00:25:25;;;;;;;6.18;5.00;;;;;;;15.38;72.09;100851.47;5024873;28;20054;-71
2022/06/22 00:27:51;;;;;;;8.15;5.18;;;;;;;15.09;73.91;100842.09;5005443;28;20080;-71
2022/06/22 00:30:29;;;;;;;9.60;5.38;;;;;;;15.26;73.63;100844.41;5003674;28;20049;-71
2022/06/22 00:33:03;;;;;;;7.15;5.82;;;;;;;15.65;72.23;100829.38;5003996;28;20042;-71
2022/06/22 00:35:47;;;;;;;7.85;5.45;;;;;;;15.70;71.75;100829.91;5018393;28;20080;-71
2022/06/22 00:38:16;;;;;;;7.90;5.32;;;;;;;15.74;71.28;100826.09;5026310;28;20056;-71
2022/06/22 00:40:43;;;;;;;10.60;5.32;;;;;;;15.81;70.73;100822.91;5026964;28;20049;-71
2022/06/22 00:43:14;;;;;;;6.00;4.75;;;;;;;16.01;70.56;100821.44;5028511;28;20111;-71
2022/06/22 00:45:41;;;;;;;7.07;4.60;;;;;;;16.01;70.45;100814.34;5029033;28;20049;-71
2022/06/22 00:48:20;;;;;;;9.57;4.70;;;;;;;16.07;69.62;100821.81;5028141;28;20049;-72
2022/06/22 00:50:54;;;;;;;6.18;4.80;;;;;;;16.13;69.25;100817.91;5027384;28;20130;-71
2022/06/22 00:53:23;;;;;;;15.43;5.07;;;;;;;16.25;67.94;100819.66;5026365;28;20053;-71
2022/06/22 00:55:55;;;;;;;5.22;4.22;;;;;;;16.26;67.78;100818.69;5028136;28;20045;-71
2022/06/22 00:58:28;;;;;;;6.23;4.23;;;;;;;16.18;67.58;100813.13;5028092;28;20049;-71
2022/06/22 01:01:00;;;;;;;5.78;4.05;;;;;;;15.95;66.90;100813.97;5028516;28;20056;-71
2022/06/22 01:03:35;;;;;;;5.63;3.85;;;;;;;15.97;66.59;100806.75;5027219;28;20579;-71
2022/06/22 01:06:09;;;;;;;6.93;4.03;;;;;;;15.91;66.41;100815.13;5026665;28;20103;-71
2022/06/22 01:08:44;;;;;;;6.10;4.55;;;;;;;15.79;66.31;100813.38;5027399;28;20083;-71
2022/06/22 01:13:58;;;;;;;8.18;4.88;;;;;;;15.63;67.35;100818.09;5026687;28;20099;-71
2022/06/22 01:16:28;;;;;;;8.60;5.05;;;;;;;15.58;67.55;100815.75;5027519;28;20049;-71
2022/06/22 01:19:00;;;;;;;6.43;4.70;;;;;;;15.44;67.26;100808.78;5028124;28;20379;-71
2022/06/22 01:21:31;;;;;;;12.68;4.95;;;;;;;15.52;67.23;100803.81;5028719;28;20469;-71
2022/06/22 01:24:20;;;;;;;5.22;4.72;;;;;;;15.50;67.43;100803.09;5027394;28;20104;-71
2022/06/22 01:27:18;;;;;;;5.50;4.22;;;;;;;15.31;67.68;100801.81;5028107;28;20494;-71
2022/06/22 01:29:47;;;;;;;7.00;4.38;;;;;;;15.09;67.61;100805.13;5026520;28;20095;-72
2022/06/22 01:32:17;;;;;;;7.05;5.07;;;;;;;14.78;68.80;100809.00;5026293;28;20452;-71
2022/06/22 01:34:47;;;;;;;5.43;4.38;;;;;;;14.34;70.33;100809.34;5026841;28;20049;-71
2022/06/22 01:37:16;;;;;;;8.55;4.97;;;;;;;14.03;72.32;100813.13;5027752;28;20057;-71
2022/06/22 01:39:43;;;;;;;7.43;5.20;;;;;;;13.56;75.42;100802.16;5025984;28;20061;-71
2022/06/22 01:42:19;;;;;;;8.85;5.40;;;;;;;13.97;74.30;100815.28;5028838;28;20511;-71
2022/06/22 01:44:52;;;;;;;7.65;5.25;;;;;;;14.41;72.63;100810.63;5024264;28;20111;-71
2022/06/22 01:47:26;;;;;;;6.93;5.00;;;;;;;14.46;72.14;100810.31;5027374;28;20430;-72
2022/06/22 01:50:00;;;;;;;6.95;5.07;;;;;;;14.28;71.50;100804.44;5031963;28;20087;-72
2022/06/22 01:52:44;;;;;;;9.45;5.20;;;;;;;13.65;74.66;100810.31;5028122;28;20045;-71
2022/06/22 01:55:22;;;;;;;13.50;6.20;;;;;;;13.15;79.09;100808.16;5026735;28;20425;-71
2022/06/22 01:57:56;;;;;;;8.68;5.90;;;;;;;12.76;82.61;100805.28;5027109;28;20413;-71
2022/06/22 02:00:22;;;;;;;9.98;5.97;;;;;;;12.85;83.13;100806.53;5027842;28;20050;-71
2022/06/22 02:02:56;;;;;;;10.27;6.28;;;;;;;13.41;79.46;100803.94;5026712;28;20057;-71
2022/06/22 02:05:28;;;;;;;12.82;7.18;;;;;;;13.01;82.61;100797.59;5027411;28;20046;-71
2022/06/22 02:08:00;;;;;;;9.50;6.30;;;;;;;13.34;81.24;100813.16;5018915;28;20488;-71
2022/06/22 02:10:40;;;;;;;8.75;6.22;;;;;;;14.08;77.52;100808.38;5025401;28;20091;-71
2022/06/22 02:13:22;;;;;;;8.43;5.63;;;;;;;14.46;75.62;100811.19;5025655;28;20045;-71
2022/06/22 02:15:57;;;;;;;;;;;;;;;14.29;74.24;100824.63;5019082;28;20041;-71
2022/06/22 02:18:30;;;;;;;7.05;5.35;;;;;;;14.28;74.77;100824.69;5025550;28;20395;-71
2022/06/22 02:20:59;;;;;;;9.60;5.88;;;;;;;13.98;75.56;100817.84;5026112;28;20096;-71
2022/06/22 02:23:29;;;;;;;6.32;5.43;;;;;;;14.27;74.61;100810.66;5027628;28;20111;-71
2022/06/22 02:26:06;;;;;;;8.38;5.68;;;;;;;14.39;73.03;100794.06;5025261;28;20636;-71
2022/06/22 02:28:34;;;;;;;9.20;5.40;;;;;;;14.26;73.05;100795.81;5025670;28;20049;-71
2022/06/22 02:31:01;;;;;;;7.30;5.85;;;;;;;14.02;74.73;100784.22;5025204;28;20050;-71
2022/06/22 02:33:29;;;;;;;8.23;5.55;;;;;;;13.97;75.28;100784.50;5027718;28;20103;-71
2022/06/22 02:35:57;;;;;;;8.02;5.50;;;;;;;14.29;74.23;100785.06;5026334;28;20122;-72
2022/06/22 02:38:23;;;;;;;10.70;5.80;;;;;;;14.34;73.50;100780.31;5025468;28;20045;-71
2022/06/22 02:46:31;;;;;;;7.70;4.93;;;;;;;14.39;70.96;100783.50;5026581;28;20529;-72
2022/06/22 02:49:00;;;;;;;;;;;;;;;14.34;70.37;100782.09;5025681;28;20087;-71
2022/06/22 02:51:29;;;;;;;6.25;5.32;;;;;;;14.20;70.64;100780.38;5030330;28;20348;-71
2022/06/22 02:53:59;;;;;;;8.13;4.68;;;;;;;14.10;71.29;100776.66;5026414;28;20489;-71
2022/06/22 02:56:28;;;;;;;9.65;5.10;;;;;;;14.17;70.87;100770.03;5025552;28;20054;-72
2022/06/22 02:58:56;;;;;;;9.25;5.50;;;;;;;14.28;70.82;100764.03;5025499;28;20049;-71
2022/06/22 03:01:26;;;;;;;8.10;5.20;;;;;;;14.13;71.33;100768.53;5025127;28;20049;-71
2022/06/22 03:03:54;;;;;;;6.78;5.10;;;;;;;14.19;70.63;100767.31;5025765;28;20045;-72
2022/06/22 03:06:25;;;;;;;6.35;5.43;;;;;;;14.23;69.89;100763.53;5019183;28;20064;-71
2022/06/22 03:08:53;;;;;;;5.35;4.80;;;;;;;14.22;69.64;100757.41;5018311;28;20103;-71
2022/06/22 03:11:20;;;;;;;6.43;5.13;;;;;;;14.02;70.71;100753.44;5012666;28;20097;-71
2022/06/22 03:13:50;;;;;;;8.30;4.97;;;;;;;13.86;70.71;100754.50;5019202;28;20045;-71
2022/06/22 03:16:26;;;;;;;8.30;4.93;;;;;;;13.94;70.20;100762.78;5025124;28;20095;-71
2022/06/22 03:18:54;;;;;;;11.02;4.72;;;;;;;13.93;70.34;100767.19;5024496;28;20541;-72
2022/06/22 03:21:21;;;;;;;8.32;5.47;;;;;;;14.10;69.85;100764.31;5025331;28;20072;-71
2022/06/22 03:23:54;;;;;;;7.70;5.13;;;;;;;14.10;70.72;100759.06;5025839;28;20903;-71
2022/06/22 03:26:23;;;;;;;8.32;5.35;;;;;;;14.06;71.16;100760.19;5026144;28;20708;-71
2022/06/22 03:28:55;;;;;;;6.53;5.82;;;;;;;13.95;71.65;100761.84;5023405;28;20041;-71
2022/06/22 03:31:28;;;;;;;6.63;5.38;;;;;;;13.59;72.05;100750.09;5024639;28;20045;-71
2022/06/22 03:34:01;;;;;;;7.60;4.93;;;;;;;13.47;72.35;100745.59;5024963;28;20045;-71
2022/06/22 03:36:34;;;;;;;7.28;5.50;;;;;;;13.52;72.35;100747.97;5026092;28;20049;-71
2022/06/22 03:39:04;;;;;;;8.18;5.35;;;;;;;13.68;71.94;100747.78;5024617;28;20076;-71
2022/06/22 03:41:34;;;;;;;9.75;5.85;;;;;;;13.87;71.49;100741.25;5023740;28;20579;-71
2022/06/22 03:44:06;;;;;;;6.55;5.35;;;;;;;13.97;71.53;100737.06;5024663;28;20100;-72
2022/06/22 03:46:40;;;;;;;10.13;5.63;;;;;;;13.97;71.66;100741.47;5024217;28;20042;-71
2022/06/22 03:49:16;;;;;;;12.07;5.70;;;;;;;13.91;72.25;100741.88;5024007;28;20052;-71
2022/06/22 03:51:48;;;;;;;10.35;5.85;;;;;;;13.97;72.43;100754.66;5026377;28;20045;-71
2022/06/22 03:54:18;;;;;;;9.73;6.75;;;;;;;14.11;72.04;100754.63;5025366;28;20049;-71
2022/06/22 03:56:49;;;;;;;8.63;6.63;;;;;;;14.30;71.24;100748.97;5024830;28;20095;-71
2022/06/22 03:59:16;;;;;;;7.15;6.07;;;;;;;14.00;72.04;100750.06;5023921;28;20103;-71
2022/06/22 04:01:44;;;;;;;7.70;6.00;;;;;;;14.02;72.15;100753.44;5026110;28;20045;-71
2022/06/22 04:04:11;;;;;;;11.45;6.45;;;;;;;14.12;72.47;100756.28;5026159;28;20045;-71
2022/06/22 04:06:47;;;;;;;9.98;6.93;;;;;;;14.54;71.10;100752.63;5024921;28;20045;-71
2022/06/22 04:09:19;;;;;;;8.30;6.93;;;;;;;14.68;70.88;100749.88;5023483;28;20149;-72
2022/06/22 04:11:52;;;;;;;10.75;7.45;;;;;;;14.99;70.68;100759.19;5022391;28;20504;-71
2022/06/22 04:14:22;;;;;;;9.75;6.82;;;;;;;14.98;71.00;100745.13;5024629;28;20567;-72
2022/06/22 04:16:55;;;;;;;16.08;6.80;;;;;;;14.87;71.79;100760.03;5024490;28;20041;-72
2022/06/22 04:19:26;;;;;;;9.35;7.20;;;;;;;14.89;71.28;100756.31;5024250;28;20597;-72
2022/06/22 04:21:57;;;;;;;9.02;7.07;;;;;;;14.70;72.38;100765.63;5024339;28;20045;-71
2022/06/22 04:24:27;;;;;;;9.90;7.40;;;;;;;14.78;72.09;100763.31;5023944;28;20037;-71
2022/06/22 04:27:01;;;;;;;9.35;7.03;;;;;;;14.61;73.18;100760.00;5025868;28;20049;-71
2022/06/22 04:29:33;;;;;;;15.15;7.43;;;;;;;14.91;72.67;100764.13;5023908;28;20041;-72
2022/06/22 04:32:12;;;;;;;11.60;7.88;;;;;;;15.30;71.42;100774.56;5026126;28;20050;-72
2022/06/22 04:34:45;;;;;;;13.80;8.10;;;;;;;16.05;69.50;100775.31;5024717;28;20467;-72
2022/06/22 04:37:20;;;;;;;;;;;;;;;16.25;69.83;100793.19;5023711;28;20045;-72
2022/06/22 04:39:51;;;;;;;11.25;7.45;;;;;;;16.55;68.47;100796.16;5024063;28;19963;-72
2022/06/22 04:42:17;;;;;;;12.75;7.65;;;;;;;16.51;69.01;100800.03;5023674;28;20053;-72
2022/06/22 04:44:49;;;;;;;11.30;7.93;;;;;;;16.77;68.93;100802.53;5025043;28;20456;-72
2022/06/22 04:47:20;;;;;;;11.82;6.60;;;;;;;16.94;68.26;100810.88;5024739;28;20056;-72
2022/06/22 04:49:51;;;;;;;13.45;6.03;;;;;;;17.22;66.71;100811.41;5023433;28;20421;-73
2022/06/22 04:52:22;;;;;;;15.82;5.90;;;;;;;17.30;65.53;100801.84;5023735;28;20166;-72
2022/06/22 04:54:53;;;;;;;10.32;5.70;;;;;;;17.23;65.93;100805.97;5024382;28;20049;-72
2022/06/22 04:57:23;;;;;;;13.07;5.50;;;;;;;17.03;67.31;100788.13;5025750;28;20103;-72
2022/06/22 04:59:51;;;;;;;14.05;5.30;;;;;;;17.26;68.33;100778.38;5023536;28;20049;-72
2022/06/22 05:02:22;;;;;;;10.80;5.63;;;;;;;17.48;68.26;100779.19;5021543;28;20091;-72
2022/06/22 05:04:51;;;;;;;9.00;5.10;;;;;;;17.86;66.92;100784.09;5023726;28;20041;-72
2022/06/22 05:07:29;;;;;;;9.68;5.90;;;;;;;18.16;66.29;100771.94;5022836;28;20049;-73
2022/06/22 05:10:01;;;;;;;7.40;6.25;;;;;;;18.04;66.02;100776.44;5022863;28;20538;-72
2022/06/22 05:12:33;;;;;;;11.25;6.95;;;;;;;18.53;65.52;100775.91;5024594;28;20045;-73
2022/06/22 05:15:02;;;;;;;12.38;6.22;;;;;;;18.44;65.81;100782.78;5021983;28;20041;-72
2022/06/22 05:17:33;;;;;;;10.55;6.07;;;;;;;18.61;64.86;100770.81;5023525;28;20079;-73
2022/06/22 05:20:13;;;;;;;9.68;6.65;;;;;;;18.44;66.42;100779.28;5022121;28;20452;-72
2022/06/22 05:22:39;;;;;;;14.25;6.05;;;;;;;18.15;67.43;100783.53;5023977;28;20457;-72
2022/06/22 05:25:10;;;;;;;10.23;6.20;;;;;;;18.07;67.46;100770.88;5027648;28;20049;-73
2022/06/22 05:27:46;;;;;;;9.20;6.15;;;;;;;18.83;66.23;100764.50;5025937;28;20053;-72
2022/06/22 05:30:14;;;;;;;12.50;6.45;;;;;;;18.89;65.10;100766.63;5027310;28;20559;-72
2022/06/22 05:32:53;;;;;;;14.00;6.70;;;;;;;18.97;65.14;100777.44;5026477;28;20498;-72
2022/06/22 05:35:26;;;;;;;10.15;6.78;;;;;;;19.85;63.18;100774.97;5027369;28;20460;-72
2022/06/22 05:37:55;;;;;;;11.20;5.57;;;;;;;20.14;62.23;100791.81;5019683;28;20115;-72
2022/06/22 05:40:24;;;;;;;10.48;6.85;;;;;;;20.77;59.90;100794.88;5027092;28;20060;-72
2022/06/22 05:42:51;;;;;;;12.50;6.32;;;;;;;21.20;57.72;100795.25;5027519;28;20056;-72
2022/06/22 05:45:27;;;;;;;14.63;5.60;;;;;;;21.48;56.50;100806.78;5025466;28;20447;-72
2022/06/22 05:47:56;;;;;;;15.18;5.50;;;;;;;21.81;55.94;100808.00;5008635;28;20037;-72
2022/06/22 05:50:35;;;;;;;9.68;5.47;;;;;;;22.03;53.95;100818.28;5023748;28;20099;-72
2022/06/22 05:53:06;;;;;;;13.90;6.60;;;;;;;22.62;50.35;100811.47;5027499;28;20129;-72
2022/06/22 05:55:43;;;;;;;13.55;5.55;;;;;;;22.97;49.37;100807.94;5028559;28;20045;-72
2022/06/22 05:58:14;;;;;;;12.38;6.97;;;;;;;23.16;49.36;100807.72;5028250;28;20041;-72
2022/06/22 06:00:44;;;;;;;15.60;5.70;;;;;;;23.10;49.41;100803.84;5026632;28;20115;-72
2022/06/22 06:03:27;;;;;;;12.18;4.78;;;;;;;23.51;47.64;100809.44;5026518;28;20591;-72
2022/06/22 06:05:59;;;;;;;9.52;4.20;;;;;;;23.75;47.16;100809.53;5026911;28;20103;-72
2022/06/22 06:08:27;;;;;;;;;;;;;;;23.79;47.41;100813.56;5026105;28;20494;-72
2022/06/22 06:10:54;;;;;;;8.57;4.03;;;;;;;24.03;47.78;100810.94;5026194;28;20339;-72
2022/06/22 06:13:24;;;;;;;10.98;4.05;;;;;;;24.51;46.79;100812.03;5027400;28;20076;-72
2022/06/22 06:15:56;;;;;;;13.05;3.60;;;;;;;24.17;47.07;100815.69;5016872;28;20099;-72
2022/06/22 06:18:29;;;;;;;9.88;4.20;;;;;;;24.61;44.31;100816.22;5026737;28;20591;-71
2022/06/22 06:21:01;;;;;;;19.30;4.15;;;;;;;24.60;45.04;100819.09;5025764;28;20052;-71
2022/06/22 06:23:30;;;;;;;;;;;;;;;25.22;43.51;100811.31;5027977;28;20122;-71
2022/06/22 06:28:47;;;;;;;15.80;3.65;;;;;;;25.64;42.17;100817.25;5005301;28;20044;-72
2022/06/22 06:31:22;;;;;;;11.60;4.35;;;;;;;25.57;41.14;100817.09;5007712;28;20046;-71
2022/06/22 06:33:50;;;;;;;10.43;3.40;;;;;;;25.79;41.13;100812.81;5006718;28;20057;-71
2022/06/22 06:36:21;;;;;;;9.82;3.88;;;;;;;25.90;40.66;100814.28;5005249;28;20046;-71
2022/06/22 06:38:53;;;;;;;15.60;3.97;;;;;;;25.04;42.05;100820.41;5006288;28;20498;-71
2022/06/22 06:41:25;;;;;;;7.55;3.30;;;;;;;25.37;41.28;100805.06;5006793;28;20432;-72
2022/06/22 06:43:54;;;;;;;9.53;3.17;;;;;;;25.88;40.59;100819.81;5006982;28;20042;-71
2022/06/22 06:46:24;;;;;;;5.05;3.00;;;;;;;26.38;40.76;100819.38;5020610;28;20049;-71
2022/06/22 06:48:58;;;;;;;13.68;3.72;;;;;;;27.53;36.98;100815.44;5024190;28;20088;-72
2022/06/22 06:51:29;;;;;;;12.93;3.28;;;;;;;27.67;36.55;100814.56;5024343;28;20049;-71
2022/06/22 06:54:02;;;;;;;5.40;2.73;;;;;;;28.00;35.72;100801.47;5021629;28;20053;-71
2022/06/22 06:56:35;;;;;;;4.53;2.40;;;;;;;28.27;36.44;100805.34;5022118;28;20049;-71
2022/06/22 06:59:05;;;;;;;9.10;3.08;;;;;;;27.60;36.42;100808.28;5017058;28;20057;-71
2022/06/22 07:01:34;;;;;;;11.52;3.15;;;;;;;27.55;37.01;100810.69;5013794;28;20049;-71
2022/06/22 07:04:07;;;;;;;8.13;2.95;;;;;;;26.77;36.51;100810.28;5013661;28;20042;-71
2022/06/22 07:06:34;;;;;;;10.23;2.70;;;;;;;27.36;34.35;100805.81;5016074;28;20053;-71
2022/06/22 07:09:05;;;;;;;5.35;2.38;;;;;;;27.77;37.22;100812.41;5014124;28;20060;-71
2022/06/22 07:11:38;;;;;;;12.68;2.45;;;;;;;27.99;35.46;100805.19;5015301;28;20045;-71
2022/06/22 07:14:12;;;;;;;7.07;2.35;;;;;;;27.08;36.28;100814.56;5009944;28;20560;-71
2022/06/22 07:16:40;;;;;;;5.78;2.72;;;;;;;27.51;36.00;100807.53;5005066;28;20082;-71
2022/06/22 07:19:15;;;;;;;6.78;2.15;;;;;;;27.88;35.00;100809.22;5006406;28;20487;-71
2022/06/22 07:21:48;;;;;;;6.05;2.25;;;;;;;27.92;34.09;100810.53;5023046;28;20072;-71
2022/06/22 07:24:20;;;;;;;6.13;2.20;;;;;;;28.74;32.94;100810.13;5010654;28;20510;-71
2022/06/22 07:26:55;;;;;;;3.67;2.08;;;;;;;29.28;31.41;100804.94;5005696;28;20054;-71
2022/06/22 07:29:32;;;;;;;3.85;1.90;;;;;;;28.97;31.16;100808.03;5004726;28;20115;-71
2022/06/22 07:32:08;;;;;;;6.75;1.73;;;;;;;28.92;32.92;100813.19;5006162;28;20092;-71
2022/06/22 07:34:41;;;;;;;5.00;1.88;;;;;;;29.19;30.94;100811.50;5004384;28;20049;-71
2022/06/22 07:37:13;;;;;;;7.13;2.10;;;;;;;29.35;33.31;100806.63;5004611;28;20093;-71
2022/06/22 07:39:41;;;;;;;;;;;;;;;28.95;31.85;100810.09;5004816;28;20046;-71
2022/06/22 07:42:12;;;;;;;5.93;1.83;;;;;;;29.87;35.01;100819.59;5007152;28;20538;-71
2022/06/22 07:44:39;;;;;;;5.27;2.10;;;;;;;29.72;30.68;100812.63;5004660;28;20077;-71
2022/06/22 07:47:12;;;;;;;6.18;1.73;;;;;;;30.51;30.36;100805.59;5004895;28;20092;-71
2022/06/22 07:49:46;;;;;;;7.55;2.05;;;;;;;30.67;28.83;100805.19;5004177;28;20119;-71
2022/06/22 07:52:18;;;;;;;6.15;2.45;;;;;;;29.43;29.47;100798.38;5005876;28;20061;-71
2022/06/22 07:54:46;;;;;;;;;;;;;;;29.20;30.51;100797.78;5004713;28;20037;-71
2022/06/22 07:57:22;;;;;;;9.15;1.80;;;;;;;29.93;30.71;100797.13;5008740;28;19929;-71
2022/06/22 07:59:52;;;;;;;5.68;2.10;;;;;;;30.37;31.26;100795.78;5003945;28;20096;-71
2022/06/22 08:02:21;;;;;;;7.40;1.90;;;;;;;30.24;30.38;100801.16;5005962;28;20140;-71
2022/06/22 08:04:55;;;;;;;4.47;1.60;;;;;;;29.87;29.87;100789.84;5007017;28;20095;-71
2022/06/22 08:07:25;;;;;;;4.03;2.03;;;;;;;29.23;29.44;100778.47;5021682;28;20057;-71
2022/06/22 08:10:01;;;;;;;5.05;1.92;;;;;;;28.70;34.51;100784.56;5024330;28;20049;-71
2022/06/22 08:12:33;;;;;;;6.35;2.05;;;;;;;29.12;34.52;100778.22;5023920;28;20095;-71
2022/06/22 08:15:04;;;;;;;7.28;2.50;;;;;;;29.50;30.98;100779.47;5014981;28;20061;-71
2022/06/22 08:17:41;;;;;;;4.47;1.88;;;;;;;30.25;31.51;100773.06;5012377;28;20100;-71
2022/06/22 08:20:11;;;;;;;5.00;2.10;;;;;;;30.90;30.43;100778.50;5004502;28;20057;-71
2022/06/22 08:22:38;;;;;;;11.13;2.13;;;;;;;31.25;31.91;100778.25;5006257;28;20418;-71
2022/06/22 08:25:07;;;;;;;4.72;1.95;;;;;;;31.10;26.00;100783.94;5005609;28;20054;-71
2022/06/22 08:27:34;;;;;;;5.53;1.90;;;;;;;32.02;26.52;100778.16;5003915;28;20080;-71
2022/06/22 08:30:01;;;;;;;8.18;2.05;;;;;;;32.43;28.44;100777.69;5004003;28;20120;-71
2022/06/22 08:32:31;;;;;;;8.30;1.90;;;;;;;32.29;27.65;100776.97;5005030;28;20140;-71
2022/06/22 08:35:06;;;;;;;8.48;1.90;;;;;;;32.02;26.92;100774.59;5005085;28;20050;-71
2022/06/22 08:37:39;;;;;;;3.08;1.45;;;;;;;32.09;24.73;100772.72;5002763;28;20123;-71
2022/06/22 08:40:12;;;;;;;7.10;1.65;;;;;;;32.20;25.56;100769.28;5015739;28;20092;-71
2022/06/22 08:42:50;;;;;;;3.33;1.67;;;;;;;32.70;25.03;100771.03;5003757;28;20046;-71
2022/06/22 08:45:37;;;;;;;7.72;1.60;;;;;;;32.67;25.53;100768.72;5000388;28;20084;-71
2022/06/22 08:48:19;;;;;;;5.35;2.00;;;;;;;32.63;26.27;100764.78;4985983;28;20066;-71
2022/06/22 08:50:53;;;;;;;14.30;2.00;;;;;;;33.34;21.37;100747.97;4996872;28;20047;-71
2022/06/22 08:53:36;;;;;;;4.45;1.75;;;;;;;32.84;26.11;100760.84;4983503;28;20462;-71
2022/06/22 08:56:12;;;;;;;5.72;1.58;;;;;;;32.52;25.18;100770.91;4984456;28;20049;-71
2022/06/22 08:58:54;;;;;;;6.00;1.60;;;;;;;32.35;21.91;100775.25;4996252;28;20601;-71
2022/06/22 09:01:31;;;;;;;2.58;1.40;;;;;;;32.41;26.30;100762.69;5009383;28;20050;-71
2022/06/22 09:04:33;;;;;;;3.88;1.67;;;;;;;32.83;25.10;100763.78;5008938;28;20556;-71
2022/06/22 09:07:24;;;;;;;5.63;1.80;;;;;;;33.10;25.16;100762.47;5007698;28;20045;-71
2022/06/22 09:10:22;;;;;;;5.35;1.85;;;;;;;32.94;27.76;100761.16;5025271;28;20071;-71
2022/06/22 09:13:06;;;;;;;9.18;2.40;;;;;;;32.69;24.51;100755.78;5044925;28;20142;-71
2022/06/22 09:15:42;;;;;;;5.20;1.55;;;;;;;32.69;26.50;100752.22;5018640;28;20042;-71
2022/06/22 09:18:24;;;;;;;10.95;2.15;;;;;;;32.91;24.74;100742.59;5008514;28;20041;-71
2022/06/22 09:20:57;;;;;;;3.20;1.50;;;;;;;32.52;24.74;100748.38;5008259;28;20053;-71
2022/06/22 09:23:33;;;;;;;5.97;1.60;;;;;;;32.85;25.51;100748.09;5008578;28;20562;-71
2022/06/22 09:26:09;;;;;;;2.88;1.30;;;;;;;32.70;24.23;100748.47;5007234;28;20406;-71
2022/06/22 09:28:46;;;;;;;4.85;1.70;;;;;;;32.74;23.21;100755.09;5008135;28;20064;-71
2022/06/22 09:31:24;;;;;;;5.97;1.60;;;;;;;32.81;22.87;100764.03;5007735;28;20052;-71
2022/06/22 09:34:07;;;;;;;4.88;1.65;;;;;;;32.96;24.83;100763.66;5008402;28;20080;-71
2022/06/22 09:36:56;;;;;;;6.05;1.70;;;;;;;33.12;23.88;100761.19;5008305;28;20049;-71
2022/06/22 09:39:54;;;;;;;4.55;1.40;;;;;;;33.34;24.22;100753.41;5003139;28;20633;-71
2022/06/22 09:42:42;;;;;;;2.53;1.20;;;;;;;32.76;23.33;100766.56;5007379;28;20052;-71
2022/06/22 09:45:32;;;;;;;4.47;1.30;;;;;;;32.84;25.04;100770.88;5011421;28;20108;-71
2022/06/22 09:48:17;;;;;;;3.22;1.55;;;;;;;32.48;23.75;100772.44;4992624;28;20564;-71
2022/06/22 09:50:58;;;;;;;7.72;1.40;;;;;;;32.89;24.69;100762.91;5017920;28;20173;-71
2022/06/22 09:53:41;;;;;;;4.75;1.67;;;;;;;32.36;22.83;100770.66;5009128;28;20057;-71
2022/06/22 09:56:22;;;;;;;4.28;1.63;;;;;;;32.47;22.50;100765.34;5027634;28;20041;-71
2022/06/22 09:59:17;;;;;;;;;;;;;;;33.06;22.44;100766.69;5026491;28;20064;-71
2022/06/22 10:01:52;;;;;;;11.27;1.50;;;;;;;33.13;26.90;100771.03;5011579;28;19936;-71
2022/06/22 10:04:55;;;;;;;5.45;1.42;;;;;;;32.98;22.94;100777.84;5010453;28;20042;-71
2022/06/22 10:07:36;;;;;;;4.93;1.33;;;;;;;32.98;23.97;100786.00;5007218;28;20498;-71
2022/06/22 10:10:23;;;;;;;5.13;1.57;;;;;;;33.50;22.54;100780.00;5009509;28;20046;-71
2022/06/22 10:13:11;;;;;;;5.45;1.70;;;;;;;33.62;25.88;100780.91;5004521;28;20046;-71
2022/06/22 10:16:01;;;;;;;6.80;1.70;;;;;;;34.22;22.24;100778.22;5006969;28;20065;-71
2022/06/22 10:18:43;;;;;;;4.15;1.63;;;;;;;33.53;20.46;100787.69;5011439;28;20049;-71
2022/06/22 10:21:20;;;;;;;2.95;1.55;;;;;;;33.04;23.12;100799.50;5003621;28;20108;-71
2022/06/22 10:24:01;;;;;;;3.88;1.40;;;;;;;32.98;21.90;100807.72;5019568;28;20050;-71
2022/06/22 10:26:41;;;;;;;5.05;1.40;;;;;;;33.34;27.00;100801.50;5001594;28;20033;-71
2022/06/22 10:29:45;;;;;;;7.50;1.58;;;;;;;33.37;21.52;100796.44;5008006;28;20637;-71
2022/06/22 10:32:36;;;;;;;3.55;1.42;;;;;;;32.30;21.44;100796.75;4984865;28;20088;-71
2022/06/22 10:35:16;;;;;;;4.03;1.75;;;;;;;32.27;24.35;100798.03;4986334;28;20053;-71
2022/06/22 10:38:05;;;;;;;4.30;1.15;;;;;;;31.35;21.31;100792.19;5005526;28;20065;-71
2022/06/22 10:46:37;;;;;;;4.05;1.40;;;;;;;32.90;23.51;100776.25;4967044;28;20170;-71
2022/06/22 10:49:28;;;;;;;3.67;1.52;;;;;;;32.69;24.34;100777.50;4998380;28;20045;-70
2022/06/22 10:52:34;;;;;;;5.17;1.80;;;;;;;32.67;27.21;100774.16;5005857;28;20052;-70
2022/06/22 10:55:19;;;;;;;4.40;1.70;;;;;;;32.92;22.79;100768.72;4991381;28;20100;-70
2022/06/22 10:58:03;;;;;;;5.20;1.42;;;;;;;32.92;22.77;100771.44;5003234;28;20073;-70
2022/06/22 11:00:46;;;;;;;5.28;1.63;;;;;;;32.77;20.87;100760.94;5004903;28;20054;-71
2022/06/22 11:03:50;;;;;;;5.63;1.60;;;;;;;33.09;24.88;100758.91;5004493;28;20136;-70
2022/06/22 11:06:34;;;;;;;5.82;1.80;;;;;;;33.10;25.01;100760.59;5042114;28;20053;-70
2022/06/22 11:09:25;;;;;;;5.10;1.50;;;;;;;33.33;22.35;100768.09;5024548;28;20077;-70
2022/06/22 11:12:07;;;;;;;3.47;1.52;;;;;;;34.02;20.36;100766.78;5022258;28;20045;-71
2022/06/22 11:14:58;;;;;;;3.85;1.55;;;;;;;33.96;24.89;100760.34;5024869;28;20077;-71
2022/06/22 11:17:57;;;;;;;8.63;1.55;;;;;;;34.13;22.91;100768.69;5025627;28;20088;-71
2022/06/22 11:20:40;;;;;;;8.10;1.70;;;;;;;34.76;20.14;100770.84;5021994;28;20049;-71
2022/06/22 11:23:11;;;;;;;5.00;1.60;;;;;;;33.97;19.10;100769.34;5026247;28;20049;-71
2022/06/22 11:32:10;;;;;;;5.40;1.80;;;;;;;32.46;21.96;100771.81;5024164;28;20468;-70
2022/06/22 11:35:08;;;;;;;5.10;2.05;;;;;;;32.64;26.59;100768.34;5025076;28;20045;-70
2022/06/22 11:37:48;;;;;;;3.13;1.65;;;;;;;33.41;21.80;100769.66;5024538;28;20050;-71
2022/06/22 11:40:39;;;;;;;4.82;1.80;;;;;;;33.50;21.53;100766.41;5017745;28;20063;-71
2022/06/22 11:43:25;;;;;;;6.22;1.80;;;;;;;33.91;25.13;100776.56;5008938;28;20041;-71
2022/06/22 11:46:00;;;;;;;5.55;1.65;;;;;;;34.19;20.54;100779.50;5012939;28;20122;-71
2022/06/22 11:48:56;;;;;;;6.13;1.80;;;;;;;33.93;23.96;100776.31;5024452;28;20151;-71
2022/06/22 11:51:39;;;;;;;6.47;2.08;;;;;;;33.80;21.95;100768.34;5024562;28;20549;-71
2022/06/22 11:54:47;;;;;;;5.82;1.50;;;;;;;34.10;23.70;100770.00;5019622;28;20058;-71
2022/06/22 11:57:39;;;;;;;2.63;1.45;;;;;;;34.37;22.73;100770.44;4966771;28;20057;-71
2022/06/22 12:00:09;;;;;;;;;;;;;;;34.98;19.23;100766.47;5004598;28;20045;-71
2022/06/22 12:03:25;;;;;;;4.57;1.67;;;;;;;34.65;21.35;100773.34;5006062;28;19921;-71
2022/06/22 12:06:07;;;;;;;4.78;1.88;;;;;;;33.07;25.50;100763.75;4987272;28;20056;-71
2022/06/22 12:08:50;;;;;;;2.97;1.60;;;;;;;33.60;23.99;100758.53;5019742;28;20049;-71
2022/06/22 12:11:25;;;;;;;4.72;2.10;;;;;;;34.07;20.24;100751.41;5025395;28;20049;-71
2022/06/22 12:17:02;;;;;;;8.27;1.98;;;;;;;33.31;22.51;100748.44;5017010;28;20068;-71
2022/06/22 12:19:40;;;;;;;3.67;1.55;;;;;;;33.56;22.57;100746.44;5024138;28;20057;-71
2022/06/22 12:22:23;;;;;;;3.40;1.58;;;;;;;33.93;19.91;100751.81;5025839;28;20076;-71
2022/06/22 12:25:11;;;;;;;5.43;1.70;;;;;;;34.57;24.95;100745.59;5023730;28;20461;-71
2022/06/22 12:27:40;;;;;;;3.03;1.77;;;;;;;34.39;21.09;100749.25;5024085;28;20073;-71